Time;durP1;ratioP1;P1;durP2;ratioP2;P2;SDS_P1;SDS_P2;PMS_P1;PMS_P2;Temp;Humidity;BMP_temperature;BMP_pressure;BME280_temperature;BME280_humidity;BME280_pressure;Samples;Min_cycle;Max_cycle;Signal;HPM_P1;HPM_P2
2022/06/01 00:05:13;;;;;;;5.90;3.40;;;11.70;60.00;;;;;;10384696;28;20236;-81
2022/06/01 00:10:34;;;;;;;4.67;3.90;;;11.70;65.90;;;;;;10397640;28;20226;-79
2022/06/01 00:15:56;;;;;;;4.07;3.57;;;11.70;71.00;;;;;;10370340;28;20230;-79
2022/06/01 00:21:17;;;;;;;6.63;3.57;;;11.70;72.70;;;;;;10397792;28;20211;-79
2022/06/01 00:26:38;;;;;;;8.50;4.73;;;11.70;71.30;;;;;;10383593;28;20230;-80
2022/06/01 00:31:59;;;;;;;6.03;4.23;;;11.70;84.30;;;;;;10397556;28;20224;-80
2022/06/01 00:37:21;;;;;;;5.07;3.60;;;11.70;74.30;;;;;;10383110;28;20309;-80
2022/06/01 00:42:45;;;;;;;8.47;4.40;;;11.70;84.50;;;;;;10383251;28;20235;-79
2022/06/01 00:48:07;;;;;;;7.20;4.43;;;11.60;93.20;;;;;;10396917;28;20200;-80
2022/06/01 00:53:33;;;;;;;5.57;4.60;;;11.60;96.40;;;;;;10396533;28;20303;-80
2022/06/01 00:58:56;;;;;;;8.10;4.47;;;11.60;99.90;;;;;;10368948;28;20205;-79
2022/06/01 01:04:18;;;;;;;5.53;4.60;;;11.60;99.90;;;;;;10396342;28;20323;-80
2022/06/01 01:09:40;;;;;;;8.53;5.03;;;11.60;99.90;;;;;;10395772;28;20195;-79
2022/06/01 01:15:01;;;;;;;5.47;4.63;;;11.50;99.90;;;;;;10367752;28;20211;-80
2022/06/01 01:20:24;;;;;;;8.17;5.17;;;11.50;99.90;;;;;;10381906;28;20381;-79
2022/06/01 01:25:46;;;;;;;6.03;4.83;;;11.40;99.90;;;;;;10395792;28;20234;-80
2022/06/01 01:31:12;;;;;;;6.50;4.67;;;11.40;99.90;;;;;;10395403;28;20227;-80
2022/06/01 01:36:41;;;;;;;12.47;5.33;;;11.40;99.90;;;;;;10381216;28;20246;-79
2022/06/01 01:42:03;;;;;;;7.30;5.63;;;11.30;99.90;;;;;;10395110;28;20212;-80
2022/06/01 01:47:25;;;;;;;6.63;5.93;;;11.30;99.90;;;;;;10396412;28;20405;-80
2022/06/01 01:52:47;;;;;;;8.00;6.63;;;11.20;99.90;;;;;;10380987;28;20471;-79
2022/06/01 01:58:24;;;;;;;12.27;9.77;;;11.20;99.90;;;;;;10326917;28;20205;-81
2022/06/01 02:06:03;;;;;;;13.03;8.97;;;11.20;99.90;;;;;;10354291;28;20279;-80
2022/06/01 02:15:37;;;;;;;8.27;6.60;;;11.10;99.90;;;;;;10394458;28;20210;-79
2022/06/01 02:21:03;;;;;;;7.30;6.43;;;11.10;99.90;;;;;;10380681;28;20376;-81
2022/06/01 02:26:25;;;;;;;7.80;5.70;;;11.00;99.90;;;;;;10397071;28;20192;-82
2022/06/01 02:31:47;;;;;;;8.20;6.00;;;10.90;99.90;;;;;;10388615;28;20232;-80
2022/06/01 02:37:09;;;;;;;6.90;5.60;;;10.90;99.90;;;;;;10401817;28;20300;-80
2022/06/01 02:42:30;;;;;;;6.83;5.17;;;10.90;99.90;;;;;;10387916;28;20212;-81
2022/06/01 02:47:54;;;;;;;8.20;5.20;;;10.90;99.90;;;;;;10402644;28;20266;-82
2022/06/01 02:53:15;;;;;;;6.80;5.30;;;10.90;99.90;;;;;;10387034;28;20453;-81
2022/06/01 02:58:37;;;;;;;7.47;5.30;;;10.90;99.90;;;;;;10401425;28;20443;-81
2022/06/01 03:03:58;;;;;;;6.73;5.60;;;11.00;99.90;;;;;;10400961;28;20277;-80
2022/06/01 03:09:20;;;;;;;6.30;5.23;;;11.00;99.90;;;;;;10386466;28;20203;-79
2022/06/01 03:14:40;;;;;;;6.27;4.80;;;11.20;99.90;;;;;;10386217;28;20262;-79
2022/06/01 03:20:07;;;;;;;4.57;4.17;;;11.20;99.90;;;;;;10399782;28;20267;-79
2022/06/01 03:25:28;;;;;;;6.53;4.20;;;11.20;99.90;;;;;;10372570;28;20272;-79
2022/06/01 03:30:51;;;;;;;6.17;4.13;;;11.20;99.90;;;;;;10372378;28;20242;-79
2022/06/01 03:36:13;;;;;;;6.20;4.47;;;11.20;99.90;;;;;;10400586;28;20484;-80
2022/06/01 03:41:34;;;;;;;6.27;4.17;;;11.20;99.90;;;;;;10398850;28;20200;-80
2022/06/01 03:47:04;;;;;;;5.83;4.00;;;11.20;99.90;;;;;;10398992;28;20211;-79
2022/06/01 03:52:25;;;;;;;6.57;3.93;;;11.20;99.90;;;;;;10399144;28;20251;-80
2022/06/01 03:57:46;;;;;;;5.63;4.27;;;11.30;99.90;;;;;;10385016;28;20287;-80
2022/06/01 04:03:07;;;;;;;4.90;3.87;;;11.30;99.90;;;;;;10398534;28;20207;-80
2022/06/01 04:08:28;;;;;;;5.43;3.60;;;11.40;99.90;;;;;;10399254;28;20213;-80
2022/06/01 04:13:49;;;;;;;4.60;4.17;;;11.50;99.90;;;;;;10383627;28;20548;-80
2022/06/01 04:19:10;;;;;;;4.85;4.13;;;11.60;99.90;;;;;;10370203;28;20275;-79
2022/06/01 04:24:34;;;;;;;9.57;5.93;;;11.60;99.90;;;;;;10384173;28;20525;-79
2022/06/01 04:29:55;;;;;;;8.00;5.60;;;11.70;99.90;;;;;;10397367;28;20593;-78
2022/06/01 04:35:18;;;;;;;5.67;5.07;;;11.70;99.90;;;;;;10370059;28;20235;-80
2022/06/01 04:40:42;;;;;;;4.80;4.00;;;11.80;99.90;;;;;;10383252;28;20250;-79
2022/06/01 04:46:03;;;;;;;5.67;4.13;;;11.90;99.90;;;;;;10369242;28;20250;-79
2022/06/01 04:51:25;;;;;;;3.87;3.47;;;12.00;99.90;;;;;;10368246;28;20530;-79
2022/06/01 04:56:46;;;;;;;4.90;4.13;;;12.10;99.90;;;;;;10382355;28;20238;-79
2022/06/01 05:02:07;;;;;;;5.53;3.33;;;12.10;99.90;;;;;;10382263;28;20433;-79
2022/06/01 05:07:28;;;;;;;4.28;3.40;;;12.30;99.90;;;;;;10396123;28;20192;-79
2022/06/01 05:12:50;;;;;;;4.70;3.17;;;12.30;99.90;;;;;;10396076;28;20446;-79
2022/06/01 05:18:12;;;;;;;3.47;2.50;;;12.50;99.90;;;;;;10381766;28;20271;-79
2022/06/01 05:23:33;;;;;;;3.27;2.97;;;12.70;99.90;;;;;;10396569;28;20208;-78
2022/06/01 05:28:54;;;;;;;4.70;3.10;;;12.80;99.90;;;;;;10381244;28;20272;-79
2022/06/01 05:34:15;;;;;;;2.93;2.40;;;13.00;99.90;;;;;;10396518;28;20235;-79
2022/06/01 05:39:36;;;;;;;2.50;2.30;;;13.10;99.90;;;;;;10381019;28;20324;-79
2022/06/01 05:44:58;;;;;;;11.50;3.42;;;13.20;99.90;;;;;;10394718;28;20271;-79
2022/06/01 05:50:19;;;;;;;3.30;2.55;;;13.20;99.90;;;;;;10395943;28;20192;-80
2022/06/01 05:55:40;;;;;;;2.85;2.30;;;13.40;99.70;;;;;;10381027;28;20562;-80
2022/06/01 06:01:07;;;;;;;3.67;2.53;;;13.70;99.90;;;;;;10382676;28;20250;-79
2022/06/01 06:06:31;;;;;;;3.20;2.90;;;13.90;90.00;;;;;;10388853;28;20208;-79
2022/06/01 06:11:55;;;;;;;3.85;2.78;;;14.10;65.60;;;;;;10375208;28;20229;-79
2022/06/01 06:17:16;;;;;;;4.00;3.58;;;14.30;61.20;;;;;;10388391;28;20215;-80
2022/06/01 06:22:38;;;;;;;3.95;3.45;;;14.50;43.10;;;;;;10374711;28;20417;-80
2022/06/01 06:27:59;;;;;;;5.63;4.20;;;14.70;33.60;;;;;;10388261;28;20194;-80
2022/06/01 06:33:20;;;;;;;6.47;3.88;;;14.70;43.80;;;;;;10388223;28;20233;-80
2022/06/01 06:38:41;;;;;;;4.53;4.13;;;14.70;34.60;;;;;;10387898;28;20234;-79
2022/06/01 06:44:03;;;;;;;6.07;3.55;;;14.90;26.40;;;;;;10401116;28;20194;-80
2022/06/01 06:49:24;;;;;;;8.07;3.88;;;15.10;44.60;;;;;;10387209;28;20199;-80
2022/06/01 06:54:46;;;;;;;6.28;3.60;;;15.30;99.90;;;;;;10386581;28;20310;-80
2022/06/01 07:00:09;;;;;;;7.40;3.20;;;16.00;99.90;;;;;;10386809;28;20209;-81
2022/06/01 07:11:12;;;;;;;6.53;3.72;;;16.00;99.90;;;;;;10399652;28;20285;-80
2022/06/01 07:16:35;;;;;;;3.88;3.55;;;15.80;99.90;;;;;;10372030;28;20212;-80
2022/06/01 07:21:57;;;;;;;6.22;3.83;;;15.70;99.90;;;;;;10386575;28;20276;-79
2022/06/01 07:27:18;;;;;;;5.53;3.25;;;15.50;99.90;;;;;;10385391;28;20194;-79
2022/06/01 07:32:39;;;;;;;4.65;3.20;;;15.40;19.80;;;;;;10399506;28;20530;-80
2022/06/01 07:43:41;;;;;;;38.47;20.73;;;15.60;7.90;;;;;;10393902;28;20203;-81
2022/06/01 07:49:03;;;;;;;10.10;5.63;;;15.60;7.00;;;;;;10394648;28;20255;-86
2022/06/01 07:54:44;;;;;;;12.07;8.30;;;15.60;1.00;;;;;;10365613;28;20254;-81
2022/06/01 08:00:06;;;;;;;8.15;4.57;;;16.60;42.50;;;;;;10352230;28;20288;-82
2022/06/01 08:05:31;;;;;;;16.98;9.68;;;16.70;99.90;;;;;;10339177;28;20570;-83
2022/06/01 08:10:53;;;;;;;4.15;3.58;;;16.60;99.90;;;;;;10357683;28;20286;-83
2022/06/01 08:16:14;;;;;;;6.00;3.78;;;16.20;99.90;;;;;;10377873;28;20402;-81
2022/06/01 08:21:36;;;;;;;4.55;4.05;;;16.00;1.00;;;;;;10378515;28;20253;-82
2022/06/01 08:26:57;;;;;;;4.50;3.72;;;15.70;1.00;;;;;;10393091;28;20211;-86
2022/06/01 08:32:19;;;;;;;4.72;4.25;;;15.70;1.00;;;;;;10378393;28;20242;-83
2022/06/01 08:37:41;;;;;;;5.20;3.70;;;15.50;1.00;;;;;;10351141;28;20241;-83
2022/06/01 08:43:07;;;;;;;4.18;3.70;;;15.40;1.00;;;;;;10376985;28;20495;-82
2022/06/01 08:48:43;;;;;;;5.03;3.60;;;15.20;6.60;;;;;;10363701;28;20213;-82
2022/06/01 08:54:04;;;;;;;5.53;4.50;;;15.20;43.00;;;;;;10362502;28;20242;-85
2022/06/01 08:59:46;;;;;;;6.97;3.95;;;15.20;51.50;;;;;;10390890;28;20204;-81
2022/06/01 09:05:26;;;;;;;18.80;12.43;;;15.30;46.50;;;;;;10376785;28;20208;-82
2022/06/01 09:11:11;;;;;;;30.42;18.27;;;15.30;48.90;;;;;;10363284;28;20207;-82
2022/06/01 09:16:40;;;;;;;10.45;6.88;;;15.30;54.10;;;;;;10390562;28;20214;-81
2022/06/01 09:27:59;;;;;;;8.25;5.25;;;15.40;84.10;;;;;;10390132;28;20204;-83
2022/06/01 09:33:32;;;;;;;8.90;6.43;;;15.50;66.30;;;;;;10391060;28;20295;-82
2022/06/01 09:39:01;;;;;;;5.75;4.82;;;15.70;90.20;;;;;;10376703;28;20247;-82
2022/06/01 09:44:32;;;;;;;6.35;5.30;;;15.90;48.90;;;;;;10389804;28;20212;-82
2022/06/01 09:49:56;;;;;;;4.63;4.18;;;16.10;53.00;;;;;;10388977;28;20253;-82
2022/06/01 09:55:21;;;;;;;5.38;4.55;;;16.30;66.40;;;;;;10362148;28;20395;-82
2022/06/01 10:06:31;;;;;;;4.97;3.80;;;16.90;92.40;;;;;;10374606;28;20410;-82
2022/06/01 10:11:54;;;;;;;7.72;4.82;;;16.70;81.50;;;;;;10375126;28;20236;-82
2022/06/01 10:17:33;;;;;;;6.28;4.28;;;16.30;19.40;;;;;;10389064;28;20291;-82
2022/06/01 10:23:04;;;;;;;4.90;4.03;;;15.90;23.40;;;;;;10389148;28;20207;-81
2022/06/01 10:28:51;;;;;;;5.97;5.03;;;15.70;64.90;;;;;;10374876;28;20205;-81
2022/06/01 10:34:14;;;;;;;7.18;5.30;;;15.60;69.40;;;;;;10320379;28;20230;-81
2022/06/01 10:39:57;;;;;;;6.45;5.22;;;15.40;95.10;;;;;;10362906;28;20239;-87
2022/06/01 10:45:21;;;;;;;6.47;5.78;;;15.10;99.90;;;;;;10376113;28;20494;-83
2022/06/01 10:50:53;;;;;;;6.95;5.90;;;14.90;99.90;;;;;;10390541;28;20204;-83
2022/06/01 10:56:17;;;;;;;7.82;6.47;;;14.60;99.90;;;;;;10399038;28;20454;-81
2022/06/01 11:02:04;;;;;;;9.52;6.22;;;14.30;99.90;;;;;;10372340;28;20248;-87
2022/06/01 11:07:49;;;;;;;6.70;5.63;;;14.10;99.90;;;;;;10368801;28;20212;-81
2022/06/01 11:13:38;;;;;;;7.90;6.13;;;13.90;99.90;;;;;;10381445;28;20237;-82
2022/06/01 11:19:21;;;;;;;11.48;6.75;;;13.70;99.90;;;;;;10380589;28;20297;-82
2022/06/01 11:25:03;;;;;;;5.85;4.85;;;13.60;99.90;;;;;;10367467;28;20202;-84
2022/06/01 11:30:42;;;;;;;3.53;3.22;;;13.50;99.90;;;;;;10367421;28;20207;-85
2022/06/01 11:36:12;;;;;;;3.72;3.42;;;13.30;99.90;;;;;;10353713;28;20232;-81
2022/06/01 11:41:37;;;;;;;5.10;4.10;;;13.20;99.90;;;;;;10339991;28;20217;-79
2022/06/01 11:47:07;;;;;;;5.30;4.00;;;13.20;99.90;;;;;;10339072;28;20492;-79
2022/06/01 11:52:44;;;;;;;5.37;3.00;;;13.20;99.90;;;;;;10326572;28;20275;-82
2022/06/01 11:58:09;;;;;;;5.78;3.58;;;13.20;99.90;;;;;;10338885;28;20193;-82
2022/06/01 12:03:37;;;;;;;1.88;1.67;;;13.60;99.90;;;;;;10335268;28;20210;-81
2022/06/01 12:09:02;;;;;;;4.75;2.38;;;14.20;99.90;;;;;;10346549;28;20189;-80
2022/06/01 12:14:39;;;;;;;1.50;1.40;;;14.80;99.90;;;;;;10351528;28;20454;-83
2022/06/01 12:20:11;;;;;;;2.00;1.50;;;14.60;99.90;;;;;;10360224;28;20264;-79
2022/06/01 12:31:28;;;;;;;2.05;1.80;;;14.40;99.90;;;;;;10350739;28;20207;-83
2022/06/01 12:37:08;;;;;;;2.45;1.80;;;14.60;99.90;;;;;;10351558;28;20261;-77
2022/06/01 12:42:37;;;;;;;2.42;1.48;;;15.00;99.90;;;;;;10337102;28;20199;-80
2022/06/01 12:48:04;;;;;;;1.83;1.40;;;15.50;90.20;;;;;;10351122;28;20203;-82
2022/06/01 12:53:40;;;;;;;1.35;1.27;;;16.00;99.90;;;;;;10323823;28;20237;-79
2022/06/01 12:59:14;;;;;;;3.03;2.15;;;16.60;88.30;;;;;;10337929;28;20215;-83
2022/06/01 13:04:36;;;;;;;2.78;2.03;;;16.40;54.00;;;;;;10335567;28;20201;-79
2022/06/01 13:10:12;;;;;;;3.25;2.38;;;16.30;55.30;;;;;;10330936;28;20204;-79
2022/06/01 13:15:35;;;;;;;2.70;2.40;;;16.00;47.80;;;;;;10329073;28;20232;-80
2022/06/01 13:21:07;;;;;;;2.72;2.20;;;15.70;30.40;;;;;;10332927;28;20216;-79
2022/06/01 13:26:46;;;;;;;2.22;2.03;;;15.20;82.10;;;;;;10335516;28;20201;-80
2022/06/01 13:32:10;;;;;;;3.40;3.10;;;14.90;74.20;;;;;;10349107;28;20531;-80
2022/06/01 13:37:42;;;;;;;5.57;3.58;;;14.60;99.90;;;;;;10334051;28;20421;-80
2022/06/01 13:43:10;;;;;;;7.15;3.88;;;14.50;99.90;;;;;;10335953;28;20517;-80
2022/06/01 13:48:39;;;;;;;4.40;3.75;;;14.40;99.90;;;;;;10348845;28;20197;-79
2022/06/01 13:54:17;;;;;;;6.53;4.22;;;14.30;99.90;;;;;;10348454;28;20296;-82
2022/06/01 13:59:50;;;;;;;7.68;3.95;;;14.30;99.90;;;;;;10332525;28;20202;-80
2022/06/01 14:05:18;;;;;;;6.22;4.53;;;14.50;99.90;;;;;;10350156;28;20199;-81
2022/06/01 14:10:50;;;;;;;7.05;4.50;;;14.70;99.90;;;;;;10323708;28;20386;-81
2022/06/01 14:16:14;;;;;;;8.10;5.53;;;14.70;99.90;;;;;;10344688;28;20479;-81
2022/06/01 14:21:35;;;;;;;5.50;5.00;;;14.60;99.90;;;;;;10349115;28;20269;-81
2022/06/01 14:32:40;;;;;;;5.28;4.43;;;14.40;99.90;;;;;;10345272;28;20424;-82
2022/06/01 14:38:02;;;;;;;7.28;4.70;;;14.70;99.90;;;;;;10336691;28;20251;-81
2022/06/01 14:43:28;;;;;;;4.68;4.10;;;14.90;95.20;;;;;;10331843;28;20222;-82
2022/06/01 14:48:51;;;;;;;3.03;2.80;;;15.10;58.40;;;;;;10355486;28;20256;-83
2022/06/01 14:54:13;;;;;;;3.22;2.92;;;14.90;44.10;;;;;;10328952;28;20475;-82
2022/06/01 14:59:34;;;;;;;5.55;3.10;;;15.00;39.00;;;;;;10349536;28;20369;-82
2022/06/01 15:04:59;;;;;;;3.47;3.10;;;15.20;68.10;;;;;;10345911;28;20201;-83
2022/06/01 15:10:20;;;;;;;3.40;2.78;;;15.10;89.00;;;;;;10360834;28;20255;-80
2022/06/01 15:15:42;;;;;;;2.75;2.55;;;15.30;25.10;;;;;;10358836;28;20596;-81
2022/06/01 15:21:06;;;;;;;2.33;2.13;;;15.40;26.90;;;;;;10346229;28;20208;-83
2022/06/01 15:26:27;;;;;;;2.65;2.00;;;15.30;97.30;;;;;;10344311;28;20258;-81
2022/06/01 15:43:07;;;;;;;2.40;2.20;;;15.10;15.20;;;;;;10358333;28;20447;-81
2022/06/01 15:48:29;;;;;;;3.05;2.70;;;15.00;31.20;;;;;;10345239;28;20247;-81
2022/06/01 15:53:50;;;;;;;2.70;2.50;;;15.00;18.20;;;;;;10344135;28;20557;-80
2022/06/01 15:59:11;;;;;;;5.40;3.38;;;15.10;16.90;;;;;;10331325;28;20229;-81
2022/06/01 16:04:33;;;;;;;4.55;2.35;;;15.20;20.30;;;;;;10344571;28;20203;-82
2022/06/01 16:09:54;;;;;;;4.30;3.03;;;15.20;17.30;;;;;;10344794;28;20197;-81
2022/06/01 16:15:16;;;;;;;3.50;2.72;;;15.20;15.50;;;;;;10343839;28;20302;-81
2022/06/01 16:20:38;;;;;;;3.22;2.92;;;15.30;37.30;;;;;;10317472;28;20200;-81
2022/06/01 16:25:59;;;;;;;4.45;2.83;;;15.30;61.50;;;;;;10289875;28;20210;-81
2022/06/01 16:31:20;;;;;;;2.70;2.25;;;15.30;84.00;;;;;;10316922;28;20276;-82
2022/06/01 16:36:43;;;;;;;3.75;2.88;;;15.20;9.30;;;;;;10333383;28;20243;-81
2022/06/01 16:42:05;;;;;;;2.42;2.15;;;15.20;1.00;;;;;;10357171;28;20197;-81
2022/06/01 16:47:26;;;;;;;3.80;2.53;;;15.20;9.60;;;;;;10342532;28;20203;-81
2022/06/01 16:52:47;;;;;;;3.20;2.35;;;15.10;47.60;;;;;;10342416;28;20219;-82
2022/06/01 16:58:09;;;;;;;4.18;3.15;;;14.80;10.80;;;;;;10356118;28;20211;-81
2022/06/01 17:03:31;;;;;;;8.52;5.03;;;14.80;8.80;;;;;;10341879;28;20252;-81
2022/06/01 17:08:53;;;;;;;6.55;4.13;;;14.70;11.60;;;;;;10355975;28;20234;-81
2022/06/01 17:14:14;;;;;;;6.28;2.75;;;14.70;22.00;;;;;;10355936;28;20230;-81
2022/06/01 17:19:37;;;;;;;2.95;2.10;;;14.70;30.30;;;;;;10341477;28;20227;-81
2022/06/01 17:24:58;;;;;;;4.97;2.60;;;14.60;27.50;;;;;;10341639;28;20206;-81
2022/06/01 17:30:20;;;;;;;2.90;2.10;;;14.50;18.60;;;;;;10341528;28;20227;-82
2022/06/01 17:35:41;;;;;;;1.70;1.55;;;14.40;7.90;;;;;;10340513;28;20226;-81
2022/06/01 17:41:02;;;;;;;2.25;2.05;;;14.40;31.00;;;;;;10325681;28;20499;-81
2022/06/01 17:46:24;;;;;;;1.70;1.60;;;14.40;12.40;;;;;;10301074;28;20259;-81
2022/06/01 17:51:47;;;;;;;1.67;1.50;;;14.50;80.60;;;;;;10287367;28;20200;-82
2022/06/01 17:57:08;;;;;;;1.27;1.17;;;14.40;96.30;;;;;;10305136;28;20239;-81
2022/06/01 18:02:30;;;;;;;1.60;1.50;;;14.40;94.30;;;;;;10313664;28;20391;-81
2022/06/01 18:07:51;;;;;;;1.65;1.25;;;14.30;94.80;;;;;;10313764;28;20208;-80
2022/06/01 18:13:13;;;;;;;1.15;1.05;;;14.20;93.50;;;;;;10313663;28;20457;-81
2022/06/01 18:18:36;;;;;;;2.47;1.20;;;14.10;90.80;;;;;;10345515;28;20403;-80
2022/06/01 18:23:58;;;;;;;2.03;1.33;;;14.00;52.70;;;;;;10367890;28;20201;-81
2022/06/01 18:29:22;;;;;;;1.58;1.30;;;13.90;11.70;;;;;;10354147;28;20194;-81
2022/06/01 18:34:44;;;;;;;1.85;1.30;;;13.90;14.00;;;;;;10353916;28;20225;-81
2022/06/01 18:40:07;;;;;;;1.77;1.20;;;13.90;19.30;;;;;;10325137;28;20313;-80
2022/06/01 18:45:28;;;;;;;3.60;2.17;;;13.80;9.90;;;;;;10326665;28;20203;-81
2022/06/01 18:50:51;;;;;;;2.85;1.90;;;13.70;26.50;;;;;;10313565;28;20204;-81
2022/06/01 18:56:13;;;;;;;5.43;3.15;;;13.60;18.90;;;;;;10326670;28;20276;-81
2022/06/01 19:01:37;;;;;;;4.25;2.03;;;13.50;1.00;;;;;;10313070;28;20210;-81
2022/06/01 19:07:00;;;;;;;2.75;2.25;;;13.40;1.00;;;;;;10313123;28;20208;-81
2022/06/01 19:12:22;;;;;;;5.85;2.70;;;13.40;1.00;;;;;;10306126;28;20204;-80
2022/06/01 19:17:44;;;;;;;4.32;2.75;;;13.20;3.60;;;;;;10331398;28;20284;-80
2022/06/01 19:23:06;;;;;;;3.63;3.13;;;13.10;1.60;;;;;;10359865;28;20280;-80
2022/06/01 19:28:31;;;;;;;6.90;4.07;;;13.00;7.50;;;;;;10359958;28;20201;-80
2022/06/01 19:33:52;;;;;;;6.27;3.67;;;12.90;24.00;;;;;;10359646;28;20445;-80
2022/06/01 19:44:54;;;;;;;18.40;9.13;;;12.70;52.40;;;;;;10345312;28;20232;-80
2022/06/01 19:50:18;;;;;;;24.73;13.45;;;12.60;69.40;;;;;;10358948;28;20191;-81
2022/06/01 19:55:39;;;;;;;13.25;8.60;;;12.60;85.60;;;;;;10345456;28;20229;-80
2022/06/01 20:01:02;;;;;;;11.35;7.45;;;12.40;99.80;;;;;;10358679;28;20201;-80
2022/06/01 20:06:23;;;;;;;12.43;6.67;;;12.40;99.90;;;;;;10344664;28;20209;-80
2022/06/01 20:17:28;;;;;;;6.95;4.50;;;12.20;99.90;;;;;;10357830;28;20232;-80
2022/06/01 20:22:54;;;;;;;5.17;3.87;;;12.10;99.90;;;;;;10343747;28;20205;-80
2022/06/01 20:28:17;;;;;;;7.37;4.77;;;;;;;;;;10329898;28;20205;-80
2022/06/01 20:33:38;;;;;;;5.83;4.13;;;12.00;99.90;;;;;;10343545;28;20256;-80
2022/06/01 20:39:00;;;;;;;5.60;3.83;;;11.90;99.90;;;;;;10332235;28;20279;-80
2022/06/01 20:44:21;;;;;;;3.63;3.10;;;11.80;99.90;;;;;;10357135;28;20197;-80
2022/06/01 20:49:42;;;;;;;4.78;3.45;;;11.80;99.90;;;;;;10329743;28;20205;-80
2022/06/01 20:55:05;;;;;;;4.63;3.57;;;11.80;99.90;;;;;;10356294;28;20545;-80
2022/06/01 21:00:26;;;;;;;4.50;3.70;;;11.70;99.90;;;;;;10329066;28;20254;-81
2022/06/01 21:05:47;;;;;;;4.37;3.10;;;11.70;99.90;;;;;;10342433;28;20204;-80
2022/06/01 21:11:10;;;;;;;3.33;2.83;;;11.70;99.90;;;;;;10328874;28;20205;-81
2022/06/01 21:16:32;;;;;;;4.13;3.50;;;11.70;99.90;;;;;;10355792;28;20224;-80
2022/06/01 21:21:53;;;;;;;4.13;3.73;;;11.70;99.90;;;;;;10355812;28;20210;-80
2022/06/01 21:27:17;;;;;;;5.43;3.67;;;11.70;99.90;;;;;;10341498;28;20558;-80
2022/06/01 21:32:38;;;;;;;9.23;5.27;;;11.60;99.90;;;;;;10340824;28;20205;-80
2022/06/01 21:37:59;;;;;;;11.10;6.17;;;11.50;99.90;;;;;;10327338;28;20283;-80
2022/06/01 21:43:21;;;;;;;8.87;5.40;;;11.40;99.90;;;;;;10341178;28;20199;-80
2022/06/01 21:48:42;;;;;;;8.53;4.90;;;11.40;99.90;;;;;;10327388;28;20204;-80
2022/06/01 21:54:05;;;;;;;4.87;4.07;;;11.30;99.90;;;;;;10340764;28;20304;-80
2022/06/01 21:59:26;;;;;;;6.33;3.80;;;11.20;99.90;;;;;;10341027;28;20196;-80
2022/06/01 22:04:47;;;;;;;3.87;3.40;;;11.20;99.90;;;;;;10354318;28;20379;-80
2022/06/01 22:10:09;;;;;;;6.13;4.70;;;11.20;99.90;;;;;;10354379;28;20199;-80
2022/06/01 22:15:32;;;;;;;7.60;5.30;;;11.10;99.90;;;;;;10354266;28;20259;-80
2022/06/01 22:20:53;;;;;;;9.17;4.63;;;11.00;99.90;;;;;;10340579;28;20465;-80
2022/06/01 22:26:14;;;;;;;5.90;4.27;;;10.90;99.90;;;;;;10355086;28;20461;-81
2022/06/01 22:31:36;;;;;;;8.73;4.33;;;10.90;99.90;;;;;;10354155;28;20201;-80
2022/06/01 22:37:17;;;;;;;4.67;3.93;;;10.80;99.90;;;;;;10339341;28;20240;-80
2022/06/01 22:42:40;;;;;;;5.80;4.40;;;10.70;99.90;;;;;;10341432;28;20203;-80
2022/06/01 22:48:07;;;;;;;4.70;4.13;;;10.80;99.90;;;;;;10361557;28;20201;-80
2022/06/01 22:53:32;;;;;;;4.67;3.80;;;10.70;99.90;;;;;;10347218;28;20229;-80
2022/06/01 22:58:53;;;;;;;4.00;3.63;;;10.60;99.90;;;;;;10361293;28;20210;-80
2022/06/01 23:04:15;;;;;;;4.50;4.10;;;10.40;99.90;;;;;;10347129;28;20228;-80
2022/06/01 23:09:37;;;;;;;14.00;7.40;;;10.40;99.90;;;;;;10347374;28;20276;-80
2022/06/01 23:14:58;;;;;;;14.33;8.33;;;10.30;99.90;;;;;;10346887;28;20223;-80
2022/06/01 23:20:29;;;;;;;10.27;6.27;;;10.20;99.90;;;;;;10332753;28;20206;-80
2022/06/01 23:25:56;;;;;;;8.93;5.73;;;10.20;99.90;;;;;;10332790;28;20207;-80
2022/06/01 23:31:28;;;;;;;6.43;4.43;;;10.20;99.90;;;;;;10346450;28;20392;-81
2022/06/01 23:37:06;;;;;;;5.63;4.00;;;10.10;99.90;;;;;;10345484;28;20358;-80
2022/06/01 23:43:00;;;;;;;7.40;4.60;;;10.00;99.90;;;;;;10345818;28;20223;-80
2022/06/01 23:55:04;;;;;;;8.37;5.33;;;9.90;99.90;;;;;;10359197;28;20583;-81
